Terminal Aerodrome Forecast
Issued by NWS Wilmington, OH

Current Version | Previous Version | Graphics & Text | Print | Product List | Glossary On
Versions: 1 2 3 4 5 6 7 8 9 10 11 12 13 14 15 16 17 18 19 20 21 22 23 24 25 26
000
FTUS41 KILN 180200 AAA
TAFCVG
TAF AMD
KCVG 180222Z 1802/1906 27012G22KT P6SM SCT050 OVC080
     FM180400 28012KT P6SM OVC050
     FM181000 29012KT P6SM BKN025
      TEMPO 1810/1814 BKN015
     FM181500 30012G22KT P6SM OVC022
     FM181900 31012G24KT P6SM VCSH OVC025
     FM182300 32010G18KT P6SM BKN025
     FM190200 33010KT P6SM SCT035=

USA.gov is the U.S. government's official web portal to all federal, state and local government web resources and services.